x

Frying Pan Shoals, Nc Buoy (41013) Weather Station

7:10 - Tue 31st May 2016 All times are EDT. -4 hours from GMT.

  • Wind
    7mph, 11mph gusts
  • Sea Temp 80°f
  • Air Temp 78°f
  • Sea Pressure 1010mb
  • Frying Pan Shoals, Nc Buoy
  • Frying Pan Shoals, Nc Buoy

More Historic Weather Station data

Upgrade to MSW Pro to gain access to the past 30 days of data for over 8000 Wavebouys and Weather Stations around the globe.

Join Pro

Comparision Forecast

View Surf forecast
   
mar. 05/31 7:10  -   -   -  7 11 mph 1010mb 80f 78f
7:00  -   -   -  9 11 mph 1010.1mb 80f 78f
6:50 3.5ft 8s 5s 9 11 mph 1010mb 80f 78f
6:40 3.5ft  -  5s 4 7 mph 1010mb 80f 78f
6:30  -   -   -  4 9 mph 1009.8mb 80f 78f
6:20  -   -   -  2 4 mph 1009.6mb 80f 78f
6:10  -   -   -  2 7 mph 1009.5mb 80f 78f
6:00  -   -   -  4 9 mph 1009.5mb 80f 77f
5:50 3.5ft 8s 5s 7 9 mph 1009.5mb 80f 77f
5:40  -   -   -  7 9 mph 1009.8mb 80f 77f
5:30  -   -   -  7 9 mph 1009.5mb 80f 77f
5:20  -   -   -  7 9 mph 1009.6mb 80f 77f
5:10  -   -   -  9 11 mph 1009.8mb 80f 77f
5:00  -   -   -  9 11 mph 1009.8mb 80f 77f
4:50 4ft 8s 5s 9 11 mph 1009.6mb 80f 77f
4:40 4ft  -  5s 9 11 mph 1009.5mb 80f 78f
4:30  -   -   -  11 13 mph 1009.5mb 80f 78f
4:20  -   -   -  9 13 mph 1009.6mb 80f 78f
4:10  -   -   -  11 13 mph 1009.8mb 80f 78f
4:00  -   -   -  11 13 mph 1009.9mb 80f 78f
3:50 3.5ft 8s 5s 11 16 mph 1010mb 80f 78f
3:40 3.5ft  -  5s 11 16 mph 1010mb 80f 78f
3:30  -   -   -  13 16 mph 1010.1mb 80f 78f
3:20  -   -   -  13 18 mph 1010mb 80f 78f
3:10  -   -   -  16 20 mph 1010.1mb 80f 78f
3:00  -   -   -  11 16 mph 1010.1mb 80f 78f
2:50 4ft 8s 5s 11 16 mph 1010.3mb 80f 78f
2:40  -   -   -  11 16 mph 1010.3mb 80f 78f
2:30  -   -   -  11 16 mph 1010.4mb 80f 78f
2:20  -   -   -  13 18 mph 1010.5mb 80f 78f
2:10  -   -   -  13 18 mph 1010.5mb 80f 78f
2:00  -   -   -  13 18 mph 1010.5mb 80f 78f
1:50 4.5ft 8s 5s 13 16 mph 1010.5mb 80f 78f
1:40 4.5ft  -  5s 13 16 mph 1010.9mb 80f 78f
1:30  -   -   -  11 16 mph 1011mb 80f 78f
1:20  -   -   -  11 16 mph 1011mb 80f 78f
1:10  -   -   -  11 16 mph 1011mb 80f 78f
1:00  -   -   -  9 13 mph 1011mb 80f 78f
12:50 4ft 8s 5s 11 13 mph 1011.1mb 79f 78f
12:40  -   -   -  11 16 mph 1011.1mb 79f 78f
12:30  -   -   -  13 18 mph 1011.4mb 79f 77f
12:20  -   -   -  13 18 mph 1011.4mb 79f 77f
12:10  -   -   -  11 16 mph 1011.5mb 79f 77f
12:00  -   -   -  13 18 mph 1011.6mb 79f 77f
11:50 4ft 8s 5s 16 18 mph 1011.5mb 79f 78f
11:40 4ft  -  5s 13 16 mph 1011.6mb 78f 77f
11:30  -   -   -  16 18 mph 1011.6mb 78f 78f
11:20  -   -   -  13 16 mph 1011.6mb 78f 78f
11:10  -   -   -  11 13 mph 1011.6mb 78f 78f
11:00  -   -   -  9 11 mph 1011.8mb 78f 78f
10:50 4ft 8s 5s 7 11 mph 1012mb 78f 77f
10:40  -   -   -  4
mph
1011.9mb 78f 77f
10:30  -   -   -  2 4 mph 1011.9mb 78f 76f
10:20  -   -   -  2 4 mph 1011.8mb 78f 77f
10:10  -   -   -   -  2 mph 1011.6mb 78f 76f
10:00  -   -   -   -  2 mph 1011.8mb - -
9:50 3.5ft 9s 5s 2 4 mph 1011.9mb 78f 76f
9:40 3.5ft  -  5s 2 4 mph 1011.8mb 78f 76f
9:30  -   -   -  2 7 mph 1012mb 78f 76f
9:20  -   -   -  4 9 mph 1011.9mb 78f 76f
9:10  -   -   -  2 7 mph 1011.9mb 78f 76f
9:00  -   -   -   -  2 mph 1011.9mb 78f 76f
8:50  -   -   -   -  2 mph 1011.6mb 78f 76f
8:40  -   -   -   -  2 mph 1011.5mb 78f 76f
8:30  -   -   -  2 4 mph 1011.5mb 78f 76f
8:20  -   -   -  4 7 mph 1011.5mb 78f 75f
8:10  -   -   -  4 7 mph 1011.5mb 78f 76f
8:00  -   -   -  7 9 mph 1011.6mb 78f 76f
7:50 4ft 8s  -  7
mph
1011.6mb 78f 76f
7:40  -   -   -  7 9 mph - 78f 75f
7:30  -   -   -  7 9 mph 1011.5mb 78f 75f
7:20  -   -   -  7 11 mph 1011.4mb 78f 75f
7:10  -   -   -  9 13 mph 1011.3mb 78f 75f
7:00  -   -   -  7 9 mph 1011.3mb 78f 75f
6:50 3.5ft 8s 5s 9 11 mph 1011.1mb 78f 74f
6:40  -   -   -  9 13 mph 1011.3mb 78f 74f
6:30  -   -   -  18 22 mph 1011.1mb 78f 75f
6:20  -   -   -  13 22 mph 1010.9mb 78f 77f
6:10  -   -   -  9 13 mph 1010.8mb 78f 78f
6:00  -   -   -  11 13 mph 1010.8mb 78f 78f
5:50 3.5ft 9s 6s 11 13 mph 1010.5mb 78f 77f
5:40  -   -   -  11 13 mph 1010.5mb 78f 78f
5:30  -   -   -  11 13 mph 1010.5mb 78f 77f
5:20  -   -   -  11 13 mph 1010.4mb 78f 77f
5:10  -   -   -  11 13 mph 1010.3mb 78f 77f
5:00  -   -   -  11 16 mph 1010.4mb 78f 77f
4:50 3.5ft 8s 6s 11 16 mph 1010.4mb 78f 77f
4:40 3.5ft  -  6s 13 16 mph 1010.5mb 78f 77f
4:30  -   -   -  13 18 mph 1010.5mb 78f 77f
4:20  -   -   -  11 13 mph 1010.3mb 78f 77f
4:10  -   -   -  11 13 mph 1010.3mb 78f 77f
4:00  -   -   -  11 13 mph 1010.1mb - -
3:50 3.5ft 8s 6s 11 13 mph 1010.4mb 78f 78f
3:40  -   -   -  9 11 mph 1010.3mb 78f 77f
3:30  -   -   -  9 11 mph 1010.3mb 78f 77f
3:20  -   -   -  9 11 mph 1010.5mb 78f 77f
3:10  -   -   -  7 9 mph 1010.5mb 78f 77f
3:00  -   -   -  7 9 mph 1010.6mb - -
2:50 3ft 8s 5s 9 11 mph 1010.8mb 78f 77f
2:40 3ft  -  5s 9 11 mph 1010.8mb 78f 77f
2:30  -   -   -  9 11 mph 1010.8mb 78f 77f
2:20  -   -   -  9 11 mph 1010.9mb 78f 77f
2:10  -   -   -  7 11 mph 1011mb 78f 77f
2:00  -   -   -  7 9 mph 1011.1mb 78f 77f
1:50 3.5ft 9s 5s 7 9 mph 1011.1mb 78f 77f
1:40  -   -   -  4 7 mph 1011.1mb 78f 77f
1:30  -   -   -  4 7 mph 1011.5mb 78f 77f
1:20  -   -   -  4 7 mph 1011.6mb 78f 77f
1:10  -   -   -  4 7 mph 1011.8mb 78f 77f
1:00  -   -   -  2 4 mph 1012mb 78f 77f
12:50 3.5ft 8s 5s  -  2 mph 1012mb 78f 77f
12:40  -   -   -   -  2 mph 1012.1mb 78f 77f
12:30  -   -   -  2 4 mph 1012.1mb 78f 77f
12:20  -   -   -  2
mph
1012.3mb 78f 77f
12:10  -   -   -  2 4 mph 1012.5mb 78f 77f
12:00  -   -   -  2 4 mph 1012.5mb 78f 77f
lun. 05/30 11:50 3.5ft 8s 5s 2 4 mph 1012.5mb 78f 77f
11:40  -   -   -  4 7 mph 1012.5mb 78f 77f
11:30  -   -   -  4 7 mph 1012.5mb 78f 77f
11:20  -   -   -  4 7 mph 1012.5mb 78f 77f
11:10  -   -   -  2 4 mph 1012.8mb 78f 77f
11:00  -   -   -  2 4 mph 1012.8mb 78f 77f
10:50 3.5ft 8s 5s 2 4 mph 1012.8mb 78f 77f
10:40  -   -   -  2 4 mph 1012.6mb 78f 77f
10:30  -   -   -  4
mph
1012.8mb 78f 77f
10:20  -   -   -  4 7 mph 1012.8mb 78f 77f
10:10  -   -   -  2 4 mph 1012.6mb 78f 77f
10:00  -   -   -  4 7 mph 1012.8mb 78f 77f
9:50 3.5ft 8s 5s 4 7 mph 1012.6mb 78f 77f
9:40  -   -   -  2 4 mph 1012.5mb 78f 77f
9:30  -   -   -  4 7 mph 1012.5mb 78f 77f
9:20  -   -   -  4 7 mph 1012.4mb 78f 77f
9:10  -   -   -  4 7 mph 1012.3mb 78f 77f
9:00  -   -   -  4 7 mph 1012.1mb 78f 77f
8:50 3.5ft 8s 5s 4 7 mph 1012mb 78f 77f
8:40 3.5ft  -  5s 4 7 mph 1012mb 78f 77f
8:30  -   -   -  4 7 mph 1012mb 78f 77f
8:20  -   -   -  4 7 mph 1012mb 78f 77f
8:10  -   -   -  4 7 mph 1012mb 78f 77f
8:00  -   -   -  7 9 mph 1012mb 78f 77f
7:50 4ft 8s 5s 4 7 mph 1012mb 78f 77f
7:40  -   -   -  4 7 mph 1011.9mb 78f 77f
7:30  -   -   -  7 9 mph 1011.9mb - -
7:20  -   -   -  7 11 mph 1011.8mb 78f 77f
7:10  -   -   -  7 11 mph 1011.8mb 78f 77f
7:00  -   -   -  7 9 mph 1011.8mb 78f 77f
6:50 4ft 8s 5s 7 9 mph 1011.6mb 78f 77f
6:40 4ft  -  5s 7 9 mph 1011.6mb 78f 77f
6:30  -   -   -  7 9 mph 1011.8mb 78f 77f
6:20  -   -   -  9 11 mph 1011.6mb 78f 77f
6:10  -   -   -  11 13 mph 1011.8mb 78f 77f
6:00  -   -   -  11 16 mph 1011.6mb 78f 77f
5:50 4ft 8s 5s 11 13 mph 1011.5mb 78f 77f
5:40  -   -   -  11 13 mph 1011.5mb 78f 77f
5:30  -   -   -  11 16 mph 1011.5mb 78f 77f
5:20  -   -   -  13 16 mph 1011.5mb 78f 77f
5:10  -   -   -  13 16 mph 1011.5mb 78f 77f
5:00  -   -   -  11 13 mph 1011.4mb 78f 77f
4:50 4ft 8s 5s 9 13 mph 1011.5mb 78f 77f
4:40 4ft  -  5s 9 13 mph 1011.5mb 78f 77f
4:30  -   -   -  11 18 mph 1011.6mb 78f 78f
4:20  -   -   -  13 16 mph 1011.6mb 78f 78f
4:10  -   -   -  13 16 mph 1011.6mb 78f 78f
4:00  -   -   -  13 18 mph 1011.9mb 78f 78f
3:50 4ft 6s 5s 13 16 mph 1012mb 78f 78f
3:40  -   -   -  13 16 mph 1012mb 78f 78f
3:30  -   -   -  13 16 mph 1012mb 78f 78f
3:20  -   -   -  11 16 mph 1012.1mb 78f 78f
3:10  -   -   -  11 16 mph 1012.3mb 78f 78f
3:00  -   -   -  13 16 mph 1012.5mb 78f 77f
2:50 4ft 6s 5s 16 22 mph 1012.5mb 78f 77f
2:40  -   -   -  16 18 mph 1012.6mb 78f 78f
2:30  -   -   -  16 20 mph 1012.8mb 78f 78f
2:20  -   -   -  16 20 mph 1012.8mb 78f 78f
2:10  -   -   -  16 18 mph 1013mb 78f 78f
2:00  -   -   -  13 18 mph 1013mb 78f 77f
1:50 4.5ft 7s 5s 13 18 mph 1013mb 78f 77f
1:40 4.5ft  -  5s 11 16 mph 1013.1mb 78f 76f
1:30  -   -   -  11 13 mph 1013.3mb 78f 76f
1:20  -   -   -  11 13 mph 1013mb 78f 75f
1:10  -   -   -  13 18 mph 1013.3mb 78f 75f
1:00  -   -   -  16 22 mph 1013.3mb 78f 74f
12:50 4.5ft 8s 5s 20 29 mph 1013.5mb 78f 75f
12:40 4.5ft  -  5s 18 22 mph 1013.5mb 78f 78f
12:30  -   -   -  13 18 mph 1013.5mb 78f 79f
12:20  -   -   -  13 18 mph 1013.5mb 78f 79f
12:10  -   -   -  16 18 mph 1013.8mb 78f 79f
12:00  -   -   -  13 18 mph 1013.9mb 78f 78f
11:50 4.5ft 7s 5s 16 18 mph 1014mb 78f 79f
11:40  -   -   -  16 18 mph 1014mb 78f 78f
11:30  -   -   -  13 22 mph 1014.1mb 78f 78f
11:20  -   -   -  16 20 mph 1014.4mb 78f 78f
11:10  -   -   -  16 20 mph 1014.3mb 78f 78f
11:00  -   -   -  16 18 mph 1014.3mb 78f 78f
10:50 5ft 7s 5s 16 18 mph 1014.1mb 78f 78f
10:40  -   -   -  16 18 mph 1014.1mb 78f 78f
10:30  -   -   -  13 18 mph 1014.1mb 78f 77f
10:20  -   -   -  13 20 mph 1014.3mb 78f 78f
10:10  -   -   -  11 16 mph 1014.3mb 78f 77f
10:00  -   -   -  11 16 mph 1014.4mb 78f 77f
9:50 6ft 7s 5s 13 18 mph 1014.4mb 78f 78f
9:40  -   -   -  13 16 mph 1014.4mb 78f 77f
9:30  -   -   -  13 20 mph 1014.3mb 78f 78f
9:20  -   -   -  16 18 mph 1014.3mb 78f 78f
9:10  -   -   -  13 18 mph 1014.1mb 78f 78f
9:00  -   -   -  13 18 mph 1014.1mb 78f 78f
8:50 5.5ft 7s 5s 13 18 mph 1014.1mb 78f 78f
8:40  -   -   -  13 18 mph 1014.1mb 78f 78f
8:30  -   -   -  16 20 mph 1014mb 78f 78f
8:20  -   -   -  16 20 mph 1014mb 78f 78f
8:10  -   -   -  16 20 mph 1014mb 78f 78f
8:00  -   -   -  18 22 mph 1014mb 78f 78f
7:50 6ft 7s 5s 18 22 mph 1014mb 78f 78f
7:40  -   -   -  18 22 mph 1014mb 78f 78f
7:30  -   -   -  20 25 mph 1014mb 78f 78f
7:20  -   -   -  18 22 mph 1014mb - 78f
7:10  -   -   -  18 22 mph 1013.9mb 78f 78f
7:00  -   -   -  20 25 mph 1013.9mb 78f 78f
6:50 5.5ft 7s 5s 18 25 mph 1013.9mb 78f 78f
6:40  -   -   -  18 22 mph 1013.8mb 78f 78f
6:30  -   -   -  18 22 mph 1013.8mb 78f 78f
6:20  -   -   -  18 25 mph 1013.8mb 78f 78f
6:10  -   -   -  18 20 mph 1013.8mb 78f 78f
6:00  -   -   -  18 22 mph 1013.5mb 78f 78f
5:50 5ft 8s 5s 18 22 mph 1013.5mb 78f 78f
5:40  -   -   -  18 22 mph 1013.5mb 78f 78f
5:30  -   -   -  20 25 mph 1013.5mb 78f 78f
5:20  -   -   -  20 25 mph 1013.4mb 78f 78f
5:10  -   -   -  18 25 mph 1013.3mb 78f 78f
5:00  -   -   -  18 20 mph 1013.3mb 78f 78f
4:50 5ft 7s 5s 18 22 mph 1013.3mb 78f 78f
4:40  -   -   -  18 22 mph 1013.3mb 78f 78f
4:30  -   -   -  18 22 mph 1013.4mb 78f 78f
4:20  -   -   -  20 25 mph 1013.4mb 78f 78f
4:10  -   -   -  20 25 mph 1013.4mb 78f 78f
4:00  -   -   -  18 22 mph 1013.5mb 78f 78f
3:50 5ft 7s 5s 18 25 mph 1013.5mb 78f 78f
3:40  -   -   -  18 22 mph 1013.5mb 78f 78f
3:30  -   -   -  16 20 mph 1013.5mb 78f 78f
3:20  -   -   -  18 22 mph 1013.5mb 78f 78f
3:10  -   -   -  18 22 mph 1013.8mb 78f 78f
3:00  -   -   -  18 22 mph 1013.8mb 78f 78f
2:50 5.5ft 6s 5s 18 22 mph 1013.9mb 78f 78f
2:40  -   -   -  18 22 mph 1014mb 78f 78f
2:30  -   -   -  18 22 mph 1014mb 78f 78f
2:20  -   -   -  18 22 mph 1014.1mb 78f 78f
2:10  -   -   -  18 22 mph 1014.1mb 78f 78f
2:00  -   -   -  18 22 mph 1014.1mb 78f 78f
1:50 5.5ft 6s 5s 18 22 mph 1014.4mb 78f 78f
1:40  -   -   -  18 25 mph 1014.4mb 78f 78f
1:30  -   -   -  18 20 mph 1014.5mb 78f 78f
1:20  -   -   -  18 22 mph 1014.6mb 78f 78f
1:10  -   -   -  20 25 mph 1014.6mb 78f 78f
1:00  -   -   -  18 22 mph 1014.8mb 78f 78f
12:50 5ft 7s 5s 16 20 mph 1014.8mb 78f 78f
12:40  -   -   -  16 20 mph 1015mb 78f 78f
12:30  -   -   -  18 20 mph 1014.9mb 78f 78f
12:20  -   -   -  18 20 mph 1014.9mb 78f 78f
12:10  -   -   -  16 22 mph 1015mb 78f 78f
12:00  -   -   -  18 22 mph 1015mb 78f 78f
dim. 05/29 11:50 4.5ft 6s 5s 18 22 mph 1014.9mb 78f 78f
11:40  -   -   -  18 20 mph 1015mb 78f 78f
11:30  -   -   -  18 22 mph 1015mb 78f 79f
11:20  -   -   -  18 20 mph 1015mb 78f 79f
11:10  -   -   -  18 20 mph 1015.1mb 78f 79f
11:00  -   -   -  18 22 mph 1015.3mb 78f 79f
10:50 5ft 6s 5s 18 22 mph 1015.3mb 78f 78f
10:40  -   -   -  16 20 mph 1015.3mb 78f 78f
10:30  -   -   -  16 20 mph 1015.4mb 78f 78f
10:20  -   -   -  16 22 mph 1015.3mb 78f 78f
10:10  -   -   -  18 22 mph 1015.1mb 78f 78f
10:00  -   -   -  18 22 mph 1015.1mb 78f 78f
9:50 5ft 6s 5s 16 22 mph 1015.1mb 78f 78f
9:40  -   -   -  16 20 mph 1015mb 78f 78f
9:30  -   -   -  16 20 mph 1015mb 78f 78f
9:20  -   -   -  16 20 mph 1014.9mb 78f 78f
9:10  -   -   -  16 20 mph 1014.6mb 79f 78f
9:00  -   -   -  16 20 mph 1014.6mb 79f 78f
8:50 5ft 5s 5s 16 20 mph 1014.5mb 79f 78f
8:40  -   -   -  16 20 mph 1014.5mb 79f 79f
8:30  -   -   -  16 20 mph 1014.5mb 79f 79f
8:20  -   -   -  16 20 mph 1014.5mb 79f 79f
8:10  -   -   -  16 20 mph 1014.5mb 79f 78f
8:00  -   -   -  16 20 mph 1014.6mb 79f 78f
7:50 5ft 6s 5s 16 18 mph 1014.6mb 79f 78f
7:40  -   -   -  16 20 mph 1014.8mb 79f 78f
7:30  -   -   -  18 20 mph 1014.8mb 79f 79f
7:20  -   -   -  16 22 mph 1014.6mb 79f 79f
7:10  -   -   -  18 22 mph 1014.6mb 79f 79f
7:00  -   -   -  18 22 mph 1014.6mb 79f 79f
6:50 5ft 6s 5s 16 20 mph 1014.5mb 79f 79f
6:40  -   -   -  16 20 mph 1014.4mb 79f 79f
6:30  -   -   -  16 20 mph 1014.5mb - -
6:20  -   -   -  13 18 mph 1014.5mb 79f 79f
6:10  -   -   -  13 18 mph 1014.4mb 79f 78f
6:00  -   -   -  16 20 mph 1014.4mb 79f 79f
5:50 5ft 7s 5s 13 18 mph 1014.4mb 79f 79f
5:40  -   -   -  16 22 mph 1014.5mb 79f 79f
5:30  -   -   -  16 20 mph 1014.5mb 79f 79f
5:20  -   -   -  18 20 mph 1014.5mb 79f 78f
5:10  -   -   -  18 22 mph 1014.6mb 79f 78f
5:00  -   -   -  18 20 mph 1014.6mb 79f 79f
4:50 5ft 6s 5s 18 25 mph 1014.8mb 79f 79f
4:40  -   -   -  18 22 mph 1014.9mb 79f 79f
4:30  -   -   -  18 22 mph 1014.6mb 79f 78f
4:20  -   -   -  13 18 mph 1015mb 79f 78f
4:10  -   -   -  16 18 mph 1015mb 79f 78f
4:00  -   -   -  16 18 mph 1015mb 79f 78f
3:50 6ft 7s 5s 16 20 mph 1015mb 78f 77f
3:40  -   -   -  16 20 mph 1015mb 78f 77f
3:30  -   -   -  18 22 mph 1015mb 78f 77f
3:20  -   -   -  18 22 mph 1015.1mb 78f 77f
3:10  -   -   -  18 20 mph 1015.1mb 78f 77f
3:00  -   -   -  18 22 mph 1015.3mb 78f 76f
2:50 6ft  -  5s 20 25 mph 1015.5mb - 77f
2:42 6ft 7s  -   -  mph - 79f -
2:40  -   -   -  18 25 mph 1015.5mb 79f 77f
2:30  -   -   -  16 20 mph 1015.6mb 79f 77f
2:20  -   -   -  18 22 mph 1015.6mb 79f 78f
2:10  -   -   -  13 16 mph 1015.6mb 79f 77f
2:00  -   -   -  13 16 mph 1015.9mb 78f 77f
1:50 6ft 6s 5s 16 18 mph 1016mb 79f 77f
1:40  -   -   -  16 25 mph 1016.1mb 79f 76f
1:30  -   -   -  18 25 mph 1016.3mb 78f 78f
1:20  -   -   -  13 18 mph 1016mb 79f 78f
1:10  -   -   -  16 20 mph 1016.3mb 79f 78f
1:00  -   -   -  16 18 mph 1016.3mb 79f 77f
12:50 6.5ft 7s 5s 13 18 mph 1016.3mb 78f 75f
12:40  -   -   -  20 31 mph 1016.3mb 78f 77f
12:30  -   -   -  18 25 mph 1016.1mb - 78f
12:20  -   -   -  18 27 mph 1016.1mb 78f 78f
12:10  -   -   -  20 25 mph 1016.3mb 78f 79f
12:00  -   -   -  18 22 mph 1016.3mb 78f 79f
11:50 6ft 7s 5s 20 25 mph 1016.3mb 78f 78f
11:40  -   -   -  22 29 mph 1016.4mb 78f 78f
11:30  -   -   -  20 27 mph 1016.3mb 78f 79f
11:20  -   -   -  20 25 mph 1016.3mb 78f 79f
11:10  -   -   -  22 27 mph 1016.3mb 78f 79f
11:00  -   -   -  20 27 mph 1016.1mb 78f 79f
10:50 6ft 6s 5s 22 27 mph 1016.1mb 78f 79f
10:40 6ft  -  5s 20 27 mph 1016.1mb 78f 79f
10:30  -   -   -  20 25 mph 1016mb 78f 79f
10:20  -   -   -  20 27 mph 1016mb 78f 79f
10:10  -   -   -  20 27 mph 1016mb 78f 79f
10:00  -   -   -  22 27 mph 1016mb 78f 79f
9:50 6ft 6s 5s 22 27 mph 1016mb 78f 79f
9:40  -   -   -  20 27 mph 1016mb 78f 79f
9:30  -   -   -  20 25 mph 1016mb 78f 79f
9:20  -   -   -  22 27 mph 1016mb 78f 79f
9:10  -   -   -  20 25 mph 1016mb 78f 79f
9:00  -   -   -  22 29 mph 1016mb 78f 79f
8:50 6ft 7s 5s 22 27 mph 1016mb 78f 79f
8:40  -   -   -  20 25 mph 1016mb 78f 79f
8:30  -   -   -  20 25 mph 1016mb 78f 79f
8:20  -   -   -  22 27 mph 1015.9mb 78f 79f
8:10  -   -   -  22 27 mph 1015.8mb 78f 79f
8:00  -   -   -  22 27 mph 1015.9mb 78f 79f
7:50 6ft 7s 5s 20 27 mph 1015.9mb 78f 79f
7:40  -   -   -  20 27 mph 1015.8mb 78f 79f
7:30  -   -   -  22 27 mph 1015.6mb 78f 79f
7:20  -   -   -  20 27 mph 1015.6mb 78f 79f
7:10  -   -   -  22 27 mph 1015.5mb 78f 79f
7:00  -   -   -  22 27 mph 1015.5mb 78f 79f
6:50 6ft 6s 5s 22 27 mph 1015.5mb 78f 79f
6:40  -   -   -  22 29 mph 1015.4mb 78f 79f
6:30  -   -   -  20 27 mph 1015.5mb 78f 79f
6:20  -   -   -  22 27 mph 1015.5mb 78f 79f
6:10  -   -   -  20 25 mph 1015.5mb 78f 79f
6:00  -   -   -  20 25 mph 1015.1mb 78f 79f
5:50 6ft 7s 5s 20 25 mph 1015.1mb 78f 79f
5:40  -   -   -  20 25 mph 1015mb 78f 78f
5:30  -   -   -  18 25 mph 1015mb 78f 78f
5:20  -   -   -  20 25 mph 1014.9mb 78f 78f
5:10  -   -   -  20 25 mph 1014.9mb 78f 78f
5:00  -   -   -  18 25 mph 1015mb 78f -
4:50 6ft 7s 5s 16 20 mph 1015mb 78f 78f
4:40  -   -   -  16 22 mph 1015mb 78f 78f
4:30  -   -   -  20 25 mph 1015mb 78f 78f
4:20  -   -   -  18 22 mph 1015mb 78f 78f
4:10  -   -   -  20 25 mph 1015mb 78f 79f
4:00  -   -   -  20 25 mph 1015mb 78f 78f
3:50 6ft 7s 5s 20 25 mph 1015.1mb 78f 78f
3:40  -   -   -  20 27 mph 1015mb 78f 78f
3:30  -   -   -  22 27 mph 1015.1mb 78f 78f
3:20  -   -   -  20 25 mph 1015.3mb 78f 78f
3:10  -   -   -  18 25 mph 1015.3mb 78f 77f
3:00  -   -   -  20 27 mph 1015.4mb 78f 77f
2:50 6ft 7s 5s 18 22 mph 1015.4mb 78f 77f
2:40  -   -   -  18 25 mph 1015.5mb 78f 77f
2:30  -   -   -  20 25 mph 1015.5mb 78f 78f
2:20  -   -   -  20 27 mph 1015.5mb 78f 78f
2:10  -   -   -  20 25 mph 1015.6mb 78f 78f
2:00  -   -   -  20 25 mph 1015.5mb 78f 78f
1:50 5.5ft 7s 5s 22 27 mph 1015.6mb 78f 78f
1:40  -   -   -  20 29 mph 1015.8mb 78f 78f
1:30  -   -   -  20 27 mph 1016mb 78f 78f
1:20  -   -   -  22 27 mph 1016mb 78f 78f
1:10  -   -   -  22 29 mph 1016mb 78f 78f
1:00  -   -   -  25 31 mph 1016mb 77f 78f
12:50 5ft 6s 5s 20 27 mph 1016.4mb 77f 78f
12:40  -   -   -  18 25 mph 1016.4mb 77f 76f
12:30  -   -   -  20 27 mph 1016.5mb 77f 78f
12:20  -   -   -  18 25 mph 1016.5mb 77f 78f
12:10  -   -   -  16 22 mph 1016.5mb 77f 78f
12:00  -   -   -  18 22 mph 1016.6mb 77f 78f
sam. 05/28 11:50 5ft 7s 5s 18 22 mph 1016.9mb 77f 78f
11:40  -   -   -  18 22 mph 1017mb 77f 78f
11:30  -   -   -  18 22 mph 1017mb 77f 78f
11:20  -   -   -  18 22 mph 1017mb 77f 78f
11:10  -   -   -  18 22 mph 1017mb 77f 78f
11:00  -   -   -  18 22 mph 1017.1mb 77f 78f
10:50 5ft 7s 5s 16 22 mph 1017.1mb 77f 78f
10:40  -   -   -  16 20 mph 1017.1mb 77f 77f
10:30  -   -   -  13 18 mph 1017.1mb 77f 77f
10:20  -   -   -  13 18 mph 1017.3mb 77f 76f
10:10  -   -   -  16 18 mph 1017.4mb 77f 76f
10:00  -   -   -  18 20 mph 1017.5mb 77f 76f
9:50 5.5ft 5s 5s 18 22 mph 1017.5mb 77f 76f
9:40 5.5ft  -  5s 18 25 mph 1017.5mb 77f 76f
9:30  -   -   -  18 22 mph 1017.5mb 77f 76f
9:20  -   -   -  20 25 mph 1017.4mb 77f 76f
9:10  -   -   -  18 22 mph 1017.5mb 77f 76f
9:00  -   -   -  18 25 mph 1017.5mb 77f 76f
8:50 6ft 6s 5s 20 27 mph 1017.5mb 76f 76f
8:40 6ft  -  5s 20 27 mph 1017.5mb 76f 77f
8:30  -   -   -  18 22 mph 1017.5mb 76f 76f
8:20  -   -   -  13 22 mph 1017.5mb 76f 75f
8:10  -   -   -  18 27 mph 1017.5mb 76f 75f
8:00  -   -   -  20 27 mph 1017.6mb 76f 76f
7:50 5.5ft 6s 5s 20 27 mph 1017.5mb 76f 77f
7:40  -   -   -  20 25 mph 1017.4mb 76f 77f
7:30  -   -   -  18 25 mph 1017.4mb 76f 77f
7:20  -   -   -  20 25 mph 1017.3mb 76f 77f
7:10  -   -   -  20 27 mph 1017mb 76f 77f
7:00  -   -   -  22 27 mph 1017.3mb 76f 77f
6:50 5.5ft 6s 5s 22 29 mph 1017.3mb 76f 77f
6:40  -   -   -  22 27 mph 1017.3mb 76f 77f
6:30  -   -   -  22 27 mph 1017.1mb 76f 77f
6:20  -   -   -  22 29 mph 1017.1mb 76f 77f
6:10  -   -   -  20 25 mph 1017.3mb 76f 77f
6:00  -   -   -  22 27 mph 1017.1mb 76f 77f
5:50 6ft 7s 5s 20 27 mph 1017.3mb 76f 77f
5:40  -   -   -  16 25 mph 1017.4mb 76f 76f
5:30  -   -   -  20 29 mph 1017.5mb 76f 76f
5:20  -   -   -  22 27 mph 1017.4mb 76f 76f
5:10  -   -   -  22 27 mph 1017.5mb 76f 77f
5:00  -   -   -  22 27 mph 1017.6mb 76f 77f
4:50 6ft 9s 5s 20 27 mph 1017.8mb 76f 77f
4:40 6ft  -  5s 22 29 mph 1018mb 77f 77f
4:30  -   -   -  20 27 mph 1018mb 77f 77f
4:20  -   -   -  20 25 mph 1018mb 77f 77f
4:10  -   -   -  22 27 mph 1018mb 77f 77f
4:00  -   -   -  20 27 mph 1018mb 77f 77f
3:50 6ft 9s 5s 20 27 mph 1018.1mb 77f 77f
3:40  -   -   -  18 22 mph 1018.4mb 77f 76f
3:30  -   -   -  20 27 mph 1018.3mb 77f 76f
3:20  -   -   -  20 27 mph 1018.4mb 77f 76f
3:10  -   -   -  20 25 mph 1018.5mb 77f 76f
3:00  -   -   -  22 27 mph 1018.5mb 77f 76f
2:50 5ft 8s 5s 20 27 mph 1018.5mb 77f 77f
2:40  -   -   -  20 27 mph 1018.5mb 77f 76f
2:30  -   -   -  22 25 mph 1018.5mb 77f 76f
2:20  -   -   -  20 25 mph 1018.5mb 77f 76f
2:10  -   -   -  20 25 mph 1018.5mb 77f 76f
2:00  -   -   -  20 25 mph 1018.6mb 76f 76f
1:50 5ft 8s 5s 20 25 mph 1018.8mb 76f 76f
1:40  -   -   -  18 22 mph 1019mb 76f 75f
1:30  -   -   -  18 22 mph 1019.1mb 76f 75f
1:20  -   -   -  18 25 mph 1019.1mb 76f 75f
1:10  -   -   -  20 25 mph 1019.3mb 76f 75f
1:00  -   -   -  20 25 mph 1019.3mb 76f 75f
12:50 5ft 8s 5s 18 25 mph 1019.5mb 76f 75f
12:40  -   -   -  20 22 mph 1019.6mb 76f 75f
12:30  -   -   -  20 25 mph 1019.6mb 76f 76f
12:20  -   -   -  20 25 mph 1019.6mb 76f 76f
12:10  -   -   -  20 25 mph 1019.6mb 76f 75f
12:00  -   -   -  16 20 mph 1019.6mb 76f 74f
11:50 5ft 9s 5s 20 27 mph 1019.8mb 76f 75f
11:40  -   -   -  20 27 mph 1019.9mb 76f 75f
11:30  -   -   -  20 29 mph 1019.8mb 76f 77f
11:20  -   -   -  18 20 mph 1019.6mb 76f 77f
11:10  -   -   -  20 25 mph 1019.6mb 76f 77f
11:00  -   -   -  20 25 mph 1019.5mb 76f 77f
10:50 5.5ft 9s 5s 20 22 mph 1019.5mb 76f 77f
10:40  -   -   -  18 22 mph 1019.5mb 76f 77f
10:30  -   -   -  18 22 mph 1019.5mb 76f 77f
10:20  -   -   -  18 22 mph 1019.5mb 76f 77f
10:10  -   -   -  18 20 mph 1019.4mb 76f 76f
10:00  -   -   -  18 22 mph 1019.4mb 76f 76f
9:50 5ft 9s 5s 18 22 mph 1019.4mb 76f 77f
9:40 5ft  -  5s 18 22 mph 1019.5mb 76f 77f
9:30  -   -   -  18 22 mph 1019.5mb 76f 77f
9:20  -   -   -  18 22 mph 1019.5mb 76f 77f
9:10  -   -   -  18 22 mph 1019.3mb 76f 77f
9:00  -   -   -  18 20 mph 1019.4mb 76f 77f
8:50 4.5ft 9s 5s 16 20 mph 1019.4mb 76f 77f
8:40  -   -   -  16 20 mph 1019.4mb 76f 77f
8:30  -   -   -  18 22 mph 1019.3mb 76f 77f
8:20  -   -   -  18 20 mph 1019.1mb 76f 77f
8:10  -   -   -  18 22 mph 1019mb 76f 77f
8:00  -   -   -  18 22 mph 1019mb 76f 77f
7:50 4.5ft 8s 5s 18 20 mph 1019mb 76f 77f
7:40  -   -   -  18 22 mph 1018.9mb - 77f
7:30  -   -   -  18 22 mph 1018.9mb 76f 77f
7:20  -   -   -  18 20 mph 1018.8mb 76f 77f
7:10  -   -   -  18 22 mph 1018.9mb 76f 77f
7:00  -   -   -  18 20 mph 1018.8mb 76f 77f
6:50 4ft 5s 5s 18 20 mph 1018.8mb 76f 77f
6:40  -   -   -  18 20 mph 1018.8mb 76f 77f
6:30  -   -   -  18 20 mph 1018.8mb 76f 77f
6:20  -   -   -  18 20 mph 1018.6mb 76f 77f
6:10  -   -   -  18 20 mph 1018.5mb 76f 77f
6:00  -   -   -  16 20 mph 1018.5mb 76f 77f
5:50 4ft 7s 5s 16 20 mph 1018.3mb 76f 77f
5:40  -   -   -  16 18 mph 1018.1mb 76f 77f
5:30  -   -   -  16 18 mph 1018.4mb 76f 77f
5:20  -   -   -  13 18 mph 1018.5mb 76f 77f
5:10  -   -   -  13 18 mph 1018.4mb 76f 77f
5:00  -   -   -  13 18 mph 1018.3mb 76f 77f
4:50 4ft 8s 5s 16 18 mph 1018.3mb 76f 77f
4:40  -   -   -  16 18 mph 1018.3mb 76f 77f
4:30  -   -   -  13 18 mph 1018.3mb 76f 77f
4:20  -   -   -  13 16 mph 1018.1mb 76f 77f
4:10  -   -   -  13 18 mph 1018.1mb 76f 77f
4:00  -   -   -  11 16 mph 1018.1mb 76f 77f
3:50 4ft 7s 5s 11 13 mph 1018.1mb 76f 77f
3:40  -   -   -  11 13 mph 1018.1mb 76f 77f
3:30  -   -   -  11 16 mph 1018.1mb 76f 77f
3:20  -   -   -  11 16 mph 1018.3mb 76f 77f
3:10  -   -   -  11 13 mph 1018.3mb 76f 77f
3:00  -   -   -  11 13 mph 1018.4mb 76f 77f
2:50 3.5ft 7s 5s 9 11 mph 1018.5mb 76f 77f
2:40 3.5ft  -  5s 9 11 mph 1018.5mb 76f 77f
2:30  -   -   -  11 13 mph 1018.5mb 76f 77f
2:20  -   -   -  11 13 mph 1018.5mb 76f 77f
2:10  -   -   -  11 13 mph 1018.5mb 76f 77f
2:00  -   -   -  11 16 mph 1018.6mb 76f 77f
1:50 3.5ft 7s 5s 11 16 mph 1018.5mb 76f 77f
1:40  -   -   -  11 13 mph 1018.6mb 76f 77f
1:30  -   -   -  11 13 mph 1018.8mb 76f 77f
1:20  -   -   -  9 13 mph 1018.8mb 76f 77f
1:10  -   -   -  9 13 mph 1019mb 76f 77f
1:00  -   -   -  9 13 mph 1019mb 76f 77f
12:50 3ft 6s 4s 11 13 mph 1019mb 76f 77f
12:40  -   -   -  9 11 mph 1019mb 76f 77f
12:30  -   -   -  9 13 mph 1019mb 76f 77f
12:20  -   -   -  9 11 mph 1019.1mb 76f 77f
12:10  -   -   -  9 11 mph 1019.1mb 76f 77f